createdAt,value
2019-01-17T00:03:48.842Z,57.45
2019-01-17T00:10:10.225Z,57.62
2019-01-17T00:13:12.001Z,57.73
2019-01-17T00:16:35.634Z,57.87
2019-01-17T00:19:18.953Z,58.20
2019-01-17T00:22:45.043Z,58.21
2019-01-17T00:25:41.031Z,58.48
2019-01-17T00:29:19.171Z,58.59
2019-01-17T00:32:21.316Z,58.70
2019-01-17T00:35:23.898Z,58.90
2019-01-17T00:38:12.917Z,58.93
2019-01-17T00:41:20.665Z,59.23
2019-01-17T00:44:27.370Z,59.50
2019-01-17T00:47:35.984Z,59.69
2019-01-17T00:50:42.353Z,59.67
2019-01-17T00:53:36.547Z,59.78
2019-01-17T00:56:28.883Z,59.92
2019-01-17T00:59:20.873Z,59.99
2019-01-17T01:02:11.854Z,59.94
2019-01-17T01:04:58.968Z,59.93
2019-01-17T01:08:08.943Z,59.97
2019-01-17T01:11:04.725Z,60.08
2019-01-17T01:14:16.330Z,60.26
2019-01-17T01:17:31.633Z,60.53
2019-01-17T01:20:14.297Z,60.66
2019-01-17T01:23:02.331Z,60.56
2019-01-17T01:25:48.955Z,60.68
2019-01-17T01:28:37.645Z,60.66
2019-01-17T01:31:33.876Z,60.87
2019-01-17T01:34:15.533Z,60.97
2019-01-17T01:37:18.348Z,61.05
2019-01-17T01:40:14.595Z,61.12
2019-01-17T01:43:00.833Z,61.02
2019-01-17T01:46:13.197Z,61.20
2019-01-17T01:48:57.409Z,61.21
2019-01-17T01:51:49.359Z,61.25
2019-01-17T01:54:22.084Z,61.36
2019-01-17T01:56:50.457Z,61.05
2019-01-17T01:59:20.863Z,61.14
2019-01-17T02:01:54.549Z,61.16
2019-01-17T02:04:33.957Z,61.24
2019-01-17T02:07:03.497Z,61.24
2019-01-17T02:09:33.764Z,61.13
2019-01-17T02:12:03.042Z,61.20
2019-01-17T02:14:36.300Z,61.08
2019-01-17T02:17:12.796Z,61.13
2019-01-17T02:19:42.378Z,61.03
2019-01-17T02:22:22.679Z,60.95
2019-01-17T02:25:03.527Z,60.85
2019-01-17T02:27:37.271Z,60.87
2019-01-17T02:30:06.640Z,60.93
2019-01-17T02:32:40.102Z,61.04
2019-01-17T02:35:20.904Z,61.01
2019-01-17T02:37:52.388Z,60.97
2019-01-17T02:40:35.965Z,61.08
2019-01-17T02:43:14.002Z,61.01
2019-01-17T02:45:52.297Z,60.99
2019-01-17T02:48:38.268Z,61.00
2019-01-17T02:51:22.278Z,60.90
2019-01-17T02:54:03.568Z,60.77
2019-01-17T02:56:40.987Z,60.99
2019-01-17T02:59:25.079Z,60.98
2019-01-17T03:02:13.559Z,61.17
2019-01-17T03:04:51.121Z,61.04
2019-01-17T03:07:21.139Z,61.00
2019-01-17T03:09:56.644Z,61.04
2019-01-17T03:12:26.154Z,61.04
2019-01-17T03:14:56.338Z,61.03
2019-01-17T03:17:41.248Z,61.06
2019-01-17T03:20:14.946Z,61.10
2019-01-17T03:22:52.721Z,60.88
2019-01-17T03:25:33.394Z,60.90
2019-01-17T03:28:09.525Z,60.95
2019-01-17T03:30:39.129Z,60.91
2019-01-17T03:33:16.940Z,60.83
2019-01-17T03:36:03.802Z,60.83
2019-01-17T03:38:39.035Z,60.99
2019-01-17T03:41:14.038Z,61.01
2019-01-17T03:43:48.617Z,61.02
2019-01-17T03:46:18.771Z,61.03
2019-01-17T03:49:12.801Z,61.00
2019-01-17T03:51:48.332Z,60.98
2019-01-17T03:54:50.253Z,60.92
2019-01-17T03:57:22.268Z,60.91
2019-01-17T03:59:51.767Z,60.95
2019-01-17T04:02:23.079Z,60.96
2019-01-17T04:04:53.183Z,60.94
2019-01-17T04:07:23.045Z,60.87
2019-01-17T04:09:52.835Z,60.72
2019-01-17T04:12:23.794Z,60.74
2019-01-17T04:14:53.902Z,60.74
2019-01-17T04:17:23.797Z,60.90
2019-01-17T04:19:53.294Z,60.90
2019-01-17T04:22:22.947Z,60.99
2019-01-17T04:24:57.254Z,61.03
2019-01-17T04:27:24.797Z,60.99
2019-01-17T04:29:55.382Z,60.95
2019-01-17T04:32:35.426Z,60.95
2019-01-17T04:35:18.527Z,60.88
2019-01-17T04:38:08.612Z,60.81
2019-01-17T04:40:40.563Z,60.78
2019-01-17T04:43:13.644Z,60.74
2019-01-17T04:45:51.014Z,60.68
2019-01-17T04:48:45.735Z,60.55
2019-01-17T04:51:29.883Z,60.63
2019-01-17T04:54:17.554Z,60.53
2019-01-17T04:57:00.787Z,60.63
2019-01-17T04:59:37.443Z,60.63
2019-01-17T05:02:24.889Z,60.60
2019-01-17T05:05:18.553Z,60.54
2019-01-17T05:07:59.799Z,60.56
2019-01-17T05:10:36.789Z,60.51
2019-01-17T05:16:13.214Z,60.46
2019-01-17T05:18:43.259Z,60.43
2019-01-17T05:21:34.375Z,60.50
2019-01-17T05:24:33.991Z,60.50
2019-01-17T05:27:14.618Z,60.39
2019-01-17T05:29:58.423Z,60.36
2019-01-17T05:32:36.857Z,60.35
2019-01-17T05:35:06.197Z,60.31
2019-01-17T05:37:49.823Z,60.23
2019-01-17T05:40:50.109Z,60.29
2019-01-17T05:43:41.376Z,60.28
2019-01-17T05:46:14.028Z,60.27
2019-01-17T05:49:04.384Z,60.25
2019-01-17T05:51:59.442Z,60.25
2019-01-17T05:54:47.298Z,60.17
2019-01-17T05:57:29.847Z,60.18
2019-01-17T06:00:09.921Z,60.25
2019-01-17T06:06:36.627Z,60.27
2019-01-17T09:29:05.952Z,56.92
2019-01-17T09:32:01.936Z,56.97
2019-01-17T09:38:27.985Z,56.50
2019-01-17T09:41:01.369Z,56.17
2019-01-17T09:44:18.994Z,56.33
2019-01-17T09:53:59.617Z,56.23
2019-01-17T09:56:55.849Z,55.94
2019-01-17T09:59:37.249Z,55.77
2019-01-17T10:02:20.101Z,55.98
2019-01-17T10:04:50.124Z,56.24
2019-01-17T10:07:40.467Z,56.58
2019-01-17T10:10:35.081Z,56.59
2019-01-17T10:13:11.121Z,56.87
2019-01-17T10:16:07.536Z,57.04
2019-01-17T10:19:21.098Z,56.97
2019-01-17T10:22:31.742Z,57.05
2019-01-17T10:25:48.203Z,57.13
2019-01-17T10:29:01.160Z,57.05
2019-01-17T10:32:06.266Z,57.23
2019-01-17T10:35:03.272Z,57.17
2019-01-17T10:38:11.211Z,57.27
2019-01-17T10:41:01.260Z,57.53
2019-01-17T10:44:10.099Z,57.42
2019-01-17T10:47:19.880Z,57.98
2019-01-17T10:50:29.454Z,58.44
2019-01-17T10:53:38.132Z,58.81
2019-01-17T10:57:00.352Z,59.17
2019-01-17T11:00:05.551Z,59.09
2019-01-17T11:03:30.937Z,59.34
2019-01-17T11:06:41.553Z,59.52
2019-01-17T11:09:30.690Z,59.96
2019-01-17T11:12:45.216Z,60.18
2019-01-17T11:15:37.670Z,59.86
2019-01-17T11:18:35.294Z,60.22
2019-01-17T11:21:59.673Z,60.49
2019-01-17T11:24:40.158Z,60.77
2019-01-17T11:27:43.948Z,60.72
2019-01-17T11:30:32.515Z,60.75
2019-01-17T11:33:31.009Z,60.87
2019-01-17T11:36:36.654Z,60.90
2019-01-17T11:39:26.774Z,60.94
2019-01-17T11:42:34.051Z,60.77
2019-01-17T11:45:25.811Z,60.87
2019-01-17T11:48:19.795Z,60.76
2019-01-17T11:51:16.033Z,60.73
2019-01-17T11:54:02.627Z,60.48
2019-01-17T11:56:51.985Z,60.44
2019-01-17T11:59:31.583Z,60.43
2019-01-17T12:02:39.226Z,60.42
2019-01-17T12:05:08.459Z,60.17
2019-01-17T12:07:38.210Z,60.33
2019-01-17T12:10:08.565Z,60.37
2019-01-17T12:12:39.467Z,60.48
2019-01-17T12:15:10.013Z,60.38
2019-01-17T12:17:39.504Z,60.46
2019-01-17T12:20:09.527Z,60.38
2019-01-17T12:55:02.923Z,58.88
2019-01-17T12:57:32.212Z,58.94
2019-01-17T13:00:07.579Z,58.63
2019-01-17T13:02:32.513Z,58.12
2019-01-17T13:05:01.915Z,58.04
2019-01-17T13:07:31.520Z,58.14
2019-01-17T13:10:01.918Z,58.19
2019-01-17T13:12:36.721Z,58.18
2019-01-17T13:15:06.657Z,57.85
2019-01-17T13:17:36.016Z,57.86
2019-01-17T13:20:16.634Z,57.59
2019-01-17T13:22:46.228Z,57.29
2019-01-17T13:25:21.172Z,57.42
2019-01-17T13:27:50.801Z,57.43
2019-01-17T13:30:27.764Z,57.63
2019-01-17T13:32:59.954Z,57.54
2019-01-17T13:35:29.048Z,57.44
2019-01-17T13:37:58.371Z,57.38
2019-01-17T13:40:28.828Z,57.60
2019-01-17T13:42:59.944Z,57.52
2019-01-17T13:45:32.912Z,57.44
2019-01-17T13:48:06.030Z,57.66
2019-01-17T13:50:35.682Z,57.70
2019-01-17T13:53:05.671Z,57.88
2019-01-17T13:55:36.088Z,58.02
2019-01-17T13:58:12.452Z,58.18
2019-01-17T14:00:42.734Z,58.36
2019-01-17T14:03:12.579Z,58.31
2019-01-17T14:05:41.965Z,58.26
2019-01-17T14:08:11.473Z,58.33
2019-01-17T14:10:41.119Z,58.22
2019-01-17T14:13:12.704Z,58.14
2019-01-17T14:15:43.051Z,58.21
2019-01-17T14:18:12.708Z,58.15
2019-01-17T14:20:43.040Z,58.03
2019-01-17T14:23:18.136Z,58.24
2019-01-17T14:25:47.972Z,58.17
2019-01-17T14:28:17.564Z,58.05
2019-01-17T14:30:50.243Z,57.85
2019-01-17T14:33:21.093Z,57.53
2019-01-17T14:35:50.700Z,57.56
2019-01-17T14:38:19.892Z,57.32
2019-01-17T14:40:49.553Z,57.44
2019-01-17T14:43:18.797Z,57.17
2019-01-17T14:45:48.519Z,57.00
2019-01-17T14:48:17.914Z,57.19
2019-01-17T14:50:47.510Z,57.04
2019-01-17T14:53:38.752Z,56.86
2019-01-17T14:56:29.345Z,56.82
2019-01-17T14:59:04.896Z,56.73
2019-01-17T15:05:10.442Z,56.70
2019-01-17T15:08:33.732Z,56.74
2019-01-17T15:14:35.368Z,56.29
2019-01-17T15:17:02.726Z,56.46
2019-01-17T15:20:04.785Z,56.45
2019-01-17T15:23:00.437Z,56.49
2019-01-17T15:29:18.941Z,56.54
2019-01-17T15:32:04.131Z,56.53
2019-01-17T15:34:58.183Z,56.79
2019-01-17T15:41:30.454Z,56.29
2019-01-17T15:43:59.984Z,55.99
2019-01-17T15:46:39.115Z,56.36
2019-01-17T15:49:08.616Z,56.45
2019-01-17T15:51:38.219Z,56.38
2019-01-17T15:54:07.951Z,56.59
2019-01-17T15:56:38.735Z,56.63
2019-01-17T15:59:09.996Z,56.36
2019-01-17T16:01:40.220Z,56.40
2019-01-17T16:04:09.895Z,56.16
2019-01-17T16:06:50.411Z,56.17
2019-01-17T16:09:14.581Z,56.26
2019-01-17T16:11:44.023Z,56.26
2019-01-17T16:14:13.346Z,56.42
2019-01-17T16:16:48.228Z,56.42
2019-01-17T16:19:14.326Z,56.48
2019-01-17T16:21:45.886Z,56.27
2019-01-17T16:24:16.262Z,56.51
2019-01-17T16:26:45.732Z,56.69
2019-01-17T16:29:26.343Z,56.74
2019-01-17T16:32:01.994Z,56.81
2019-01-17T16:34:54.672Z,56.80
2019-01-17T16:37:24.048Z,56.69
2019-01-17T16:39:56.409Z,56.57
2019-01-17T16:42:41.163Z,56.59
2019-01-17T16:45:18.346Z,56.59
2019-01-17T16:47:53.982Z,56.60
2019-01-17T16:50:26.818Z,56.60
2019-01-17T16:52:56.154Z,56.66
2019-01-17T16:55:33.046Z,56.87
2019-01-17T16:58:02.413Z,57.01
2019-01-17T17:00:34.963Z,57.05
2019-01-17T17:03:11.242Z,57.30
2019-01-17T17:06:01.315Z,57.30
2019-01-17T17:08:30.771Z,57.29
2019-01-17T17:11:03.031Z,57.40
2019-01-17T17:13:32.370Z,57.34
2019-01-17T17:16:01.585Z,57.33
2019-01-17T17:18:31.605Z,57.26
2019-01-17T17:21:01.504Z,57.19
2019-01-17T17:23:30.782Z,57.35
2019-01-17T17:26:03.704Z,57.23
2019-01-17T17:28:35.557Z,57.34
2019-01-17T17:31:07.255Z,57.00
2019-01-17T17:33:36.689Z,57.09
2019-01-17T17:37:02.512Z,57.07
2019-01-17T17:39:31.530Z,56.83
2019-01-17T17:42:13.279Z,56.77
2019-01-17T17:44:42.427Z,56.54
2019-01-17T17:47:16.244Z,56.55
2019-01-17T17:49:45.594Z,56.66
2019-01-17T17:52:14.577Z,56.82
2019-01-17T17:54:43.611Z,56.82
2019-01-17T17:57:12.775Z,56.81
2019-01-17T17:59:41.875Z,56.54
2019-01-17T18:02:19.107Z,56.57
2019-01-17T18:04:48.487Z,56.75
2019-01-17T18:07:17.434Z,56.77
2019-01-17T18:09:46.569Z,56.58
2019-01-17T18:12:16.406Z,56.82
2019-01-17T18:14:45.916Z,56.80
2019-01-17T18:17:16.366Z,57.13
2019-01-17T18:19:45.626Z,57.23
2019-01-17T18:22:14.657Z,57.20
2019-01-17T18:24:44.253Z,57.17
2019-01-17T18:27:16.808Z,57.28
2019-01-17T18:29:46.874Z,57.25
2019-01-17T18:32:17.208Z,57.40
2019-01-17T18:34:46.515Z,57.12
2019-01-17T18:37:16.203Z,57.25
2019-01-17T18:39:46.398Z,57.46
2019-01-17T18:42:17.789Z,57.50
2019-01-17T18:44:47.189Z,57.42
2019-01-17T18:47:17.771Z,57.43
2019-01-17T18:49:47.142Z,57.39
2019-01-17T18:52:18.101Z,57.35
2019-01-17T18:54:47.383Z,57.28
2019-01-17T18:57:20.551Z,57.25
2019-01-17T18:59:57.542Z,57.29
2019-01-17T19:02:35.971Z,57.01
2019-01-17T19:05:11.649Z,57.15
2019-01-17T19:07:55.104Z,57.22
2019-01-17T19:10:44.075Z,57.61
2019-01-17T19:13:13.514Z,57.70
2019-01-17T19:15:44.486Z,58.03
2019-01-17T19:18:18.017Z,57.79
2019-01-17T19:21:11.483Z,57.80
2019-01-17T19:23:52.497Z,57.95
2019-01-17T19:26:21.893Z,57.94
2019-01-17T19:28:51.110Z,57.96
2019-01-17T19:31:21.421Z,57.91
2019-01-17T19:33:52.012Z,58.10
2019-01-17T19:36:22.565Z,58.00
2019-01-17T19:38:51.936Z,57.82
2019-01-17T19:41:21.551Z,57.75
2019-01-17T19:43:51.199Z,57.79
2019-01-17T19:46:21.159Z,57.71
2019-01-17T19:48:50.480Z,57.54
2019-01-17T19:51:20.044Z,57.57
2019-01-17T19:53:49.665Z,57.59
2019-01-17T19:56:20.420Z,57.52
2019-01-17T19:58:50.001Z,57.46
2019-01-17T20:01:22.622Z,57.46
2019-01-17T20:03:53.489Z,57.51
2019-01-17T20:06:22.908Z,57.38
2019-01-17T20:08:52.414Z,57.40
2019-01-17T20:11:24.537Z,57.37
2019-01-17T20:13:54.270Z,57.23
2019-01-17T20:16:24.186Z,57.18
2019-01-17T20:18:53.844Z,57.21
2019-01-17T20:21:23.204Z,57.09
2019-01-17T20:23:52.714Z,57.16
2019-01-17T20:26:22.660Z,57.16
2019-01-17T20:28:52.103Z,57.08
2019-01-17T20:31:21.625Z,57.07
2019-01-17T20:33:51.354Z,56.99
2019-01-17T20:36:20.935Z,56.94
2019-01-17T20:38:51.268Z,56.83
2019-01-17T20:41:20.814Z,56.91
2019-01-17T20:43:50.250Z,56.88
2019-01-17T20:46:19.632Z,57.00
2019-01-17T20:48:49.875Z,56.95
2019-01-17T20:51:19.323Z,57.00
2019-01-17T20:53:48.702Z,57.12
2019-01-17T20:56:18.133Z,57.04
2019-01-17T20:58:48.797Z,57.10
2019-01-17T21:01:41.859Z,57.07
2019-01-17T21:04:12.984Z,57.11
2019-01-17T21:06:46.166Z,56.99
2019-01-17T21:09:15.903Z,56.97
2019-01-17T21:11:45.821Z,56.91
2019-01-17T21:19:53.463Z,56.79
2019-01-17T21:22:25.095Z,56.82
2019-01-17T21:25:05.928Z,56.67
2019-01-17T21:27:35.006Z,56.51
2019-01-17T21:30:04.723Z,56.57
2019-01-17T21:32:33.920Z,56.71
2019-01-17T21:35:03.056Z,56.70
2019-01-17T21:37:32.076Z,56.79
2019-01-17T21:40:01.144Z,56.79
2019-01-17T21:42:30.254Z,56.78
2019-01-17T21:44:59.537Z,56.79
2019-01-17T21:47:28.567Z,56.84
2019-01-17T21:49:57.652Z,56.84
2019-01-17T21:52:26.710Z,56.84
2019-01-17T21:54:56.223Z,56.62
2019-01-17T21:57:25.150Z,56.47
2019-01-17T21:59:54.233Z,56.47
2019-01-17T22:02:23.220Z,56.48
2019-01-17T22:04:52.739Z,56.44
2019-01-17T22:07:23.787Z,56.55
2019-01-17T22:10:01.727Z,56.60
2019-01-17T22:12:31.347Z,56.56
2019-01-17T22:17:55.872Z,56.54
2019-01-17T22:20:27.863Z,56.55
2019-01-17T22:23:11.028Z,56.47
2019-01-17T22:25:41.082Z,56.30
2019-01-17T22:28:10.898Z,56.45
2019-01-17T22:30:40.040Z,56.51
2019-01-17T22:33:12.268Z,56.40
2019-01-17T22:35:41.422Z,56.38
2019-01-17T22:38:10.414Z,56.50
2019-01-17T22:40:39.603Z,56.61
2019-01-17T22:43:08.763Z,56.61
2019-01-17T22:45:37.854Z,56.66
2019-01-17T22:48:06.991Z,56.66
2019-01-17T22:50:36.149Z,56.61
2019-01-17T22:53:05.201Z,56.68
2019-01-17T22:55:34.529Z,56.67
2019-01-17T22:58:03.562Z,56.72
2019-01-17T23:01:05.349Z,56.74
2019-01-17T23:03:40.491Z,56.65
2019-01-17T23:06:09.576Z,56.71
2019-01-17T23:08:40.350Z,56.80
2019-01-17T23:11:09.382Z,56.72
2019-01-17T23:13:40.289Z,56.95
2019-01-17T23:16:09.443Z,56.97
2019-01-17T23:18:38.920Z,56.97
2019-01-17T23:21:08.024Z,57.13
2019-01-17T23:23:38.438Z,57.10
2019-01-17T23:26:07.468Z,57.19
2019-01-17T23:28:36.454Z,57.19
2019-01-17T23:31:05.412Z,57.04
2019-01-17T23:33:34.380Z,57.08
2019-01-17T23:36:03.395Z,57.11
2019-01-17T23:38:32.419Z,57.08
2019-01-17T23:41:01.366Z,56.97
2019-01-17T23:43:30.338Z,56.88
2019-01-17T23:45:59.372Z,56.95
2019-01-17T23:48:28.291Z,56.91
2019-01-17T23:50:57.232Z,56.74
2019-01-17T23:53:26.308Z,56.84
2019-01-17T23:55:55.340Z,56.71
2019-01-17T23:58:24.426Z,56.72
